Time;durP1;ratioP1;P1;durP2;ratioP2;P2;SDS_P1;SDS_P2;PMS_P1;PMS_P2;Temp;Humidity;BMP_temperature;BMP_pressure;BME280_temperature;BME280_humidity;BME280_pressure;Samples;Min_cycle;Max_cycle;Signal;HPM_P1;HPM_P2
2023/03/15 00:01:40;;;;;;;19.42;9.38;;;0.60;99.90;;;;;;6247643;22;20060;-89
2023/03/15 00:04:36;;;;;;;17.67;9.13;;;0.60;99.90;;;;;;6246278;23;20402;-90
2023/03/15 00:07:26;;;;;;;27.10;9.68;;;0.50;99.90;;;;;;6247082;22;20039;-88
2023/03/15 00:10:27;;;;;;;17.38;9.52;;;0.50;99.90;;;;;;6245042;23;20051;-90
2023/03/15 00:13:17;;;;;;;19.27;10.02;;;0.50;99.90;;;;;;6243231;23;20420;-89
2023/03/15 00:16:10;;;;;;;31.95;10.00;;;0.40;99.90;;;;;;6246062;23;20028;-87
2023/03/15 00:18:57;;;;;;;26.88;10.13;;;0.40;99.90;;;;;;6246685;23;20024;-89
2023/03/15 00:21:48;;;;;;;27.67;10.23;;;0.50;99.90;;;;;;6246302;23;20105;-90
2023/03/15 00:24:36;;;;;;;21.35;10.55;;;0.50;99.90;;;;;;6245242;23;20039;-89
2023/03/15 00:27:25;;;;;;;25.08;10.10;;;0.50;99.90;;;;;;6244769;23;20024;-89
2023/03/15 00:30:16;;;;;;;21.95;8.63;;;0.50;99.90;;;;;;6242813;23;20031;-89
2023/03/15 00:33:20;;;;;;;20.92;8.73;;;0.60;99.90;;;;;;6243049;23;20419;-89
2023/03/15 00:36:09;;;;;;;17.85;8.57;;;0.50;99.90;;;;;;6245900;23;20311;-90
2023/03/15 00:38:58;;;;;;;20.92;8.07;;;0.50;99.90;;;;;;6245717;23;20334;-89
2023/03/15 00:41:55;;;;;;;25.38;9.75;;;0.50;99.90;;;;;;6247207;22;20039;-90
2023/03/15 00:44:49;;;;;;;24.17;8.18;;;0.50;99.90;;;;;;6246714;22;20344;-89
2023/03/15 00:47:39;;;;;;;22.85;7.57;;;0.50;99.90;;;;;;6243336;23;20023;-88
2023/03/15 00:50:39;;;;;;;21.95;7.45;;;0.60;99.90;;;;;;6244145;23;20636;-86
2023/03/15 00:53:34;;;;;;;17.92;7.47;;;0.60;99.90;;;;;;6243049;23;20043;-89
2023/03/15 00:56:24;;;;;;;20.75;6.72;;;0.50;99.90;;;;;;6224693;23;20115;-88
2023/03/15 00:59:11;;;;;;;25.83;6.88;;;0.40;99.90;;;;;;6246138;23;20398;-89
2023/03/15 01:01:59;;;;;;;21.05;6.65;;;0.30;99.90;;;;;;6244335;23;20027;-89
2023/03/15 01:04:50;;;;;;;22.40;7.10;;;0.20;99.90;;;;;;6246513;23;20315;-90
2023/03/15 01:07:38;;;;;;;34.03;7.30;;;0.20;99.90;;;;;;6223869;23;20343;-89
2023/03/15 01:10:29;;;;;;;18.27;6.47;;;0.20;99.90;;;;;;6246746;23;20020;-89
2023/03/15 01:13:19;;;;;;;22.00;6.40;;;0.20;99.90;;;;;;6224549;23;20020;-89
2023/03/15 01:16:14;;;;;;;17.23;6.05;;;0.30;99.90;;;;;;6245472;23;20082;-90
2023/03/15 01:19:08;;;;;;;19.90;6.00;;;0.30;99.90;;;;;;6228030;23;20687;-87
2023/03/15 01:21:55;;;;;;;22.55;5.93;;;0.20;99.90;;;;;;6259171;22;20029;-90
2023/03/15 01:24:48;;;;;;;17.23;5.50;;;0.20;99.90;;;;;;6251547;23;20032;-87
2023/03/15 01:27:40;;;;;;;23.98;6.60;;;0.00;99.90;;;;;;6245681;23;20458;-89
2023/03/15 01:30:27;;;;;;;30.20;6.45;;;-0.10;99.90;;;;;;6245450;23;20020;-88
2023/03/15 01:33:21;;;;;;;19.23;5.22;;;-0.10;99.90;;;;;;6248197;22;20039;-90
2023/03/15 01:36:19;;;;;;;12.27;4.53;;;-0.10;99.90;;;;;;6247395;22;20028;-89
2023/03/15 01:39:06;;;;;;;23.67;5.90;;;-0.20;99.90;;;;;;6242914;23;20139;-89
2023/03/15 01:41:53;;;;;;;15.20;4.80;;;-0.30;99.90;;;;;;6247846;23;20101;-90
2023/03/15 01:45:03;;;;;;;12.15;4.50;;;-0.30;99.90;;;;;;6247324;23;20388;-89
2023/03/15 01:48:11;;;;;;;14.38;5.13;;;-0.40;99.90;;;;;;6257807;23;20112;-89
2023/03/15 01:51:02;;;;;;;15.57;5.85;;;-0.50;99.90;;;;;;6259159;23;20052;-89
2023/03/15 01:54:02;;;;;;;14.82;5.22;;;-0.50;99.90;;;;;;6267209;23;20242;-89
2023/03/15 01:57:00;;;;;;;16.38;5.53;;;-0.50;99.90;;;;;;6262801;23;20027;-90
2023/03/15 02:00:15;;;;;;;26.00;6.80;;;-0.60;99.90;;;;;;6260532;23;20123;-89
2023/03/15 02:03:14;;;;;;;15.77;5.10;;;-0.50;99.90;;;;;;6263940;23;20028;-90
2023/03/15 02:06:06;;;;;;;13.20;5.00;;;-0.40;99.90;;;;;;6250066;23;20020;-90
2023/03/15 02:09:00;;;;;;;;;;;-0.50;99.90;;;;;;6248723;23;20020;-89
2023/03/15 02:11:47;;;;;;;12.05;4.20;;;-0.50;99.90;;;;;;6251127;22;19997;-89
2023/03/15 02:14:39;;;;;;;16.13;4.95;;;-0.50;99.90;;;;;;6227042;22;20024;-88
2023/03/15 02:17:38;;;;;;;16.02;4.45;;;-0.50;99.90;;;;;;6246037;23;20060;-88
2023/03/15 02:20:46;;;;;;;15.18;4.40;;;-0.50;99.90;;;;;;6246237;23;20031;-86
2023/03/15 02:23:33;;;;;;;12.85;4.55;;;-0.60;99.90;;;;;;6244657;23;20028;-89
2023/03/15 02:26:50;;;;;;;20.65;4.32;;;-0.50;99.90;;;;;;6246626;23;20109;-88
2023/03/15 02:29:37;;;;;;;21.65;4.53;;;-0.60;99.90;;;;;;6245904;23;20031;-88
2023/03/15 02:32:27;;;;;;;19.92;4.22;;;-0.60;99.90;;;;;;6245190;23;20090;-89
2023/03/15 02:35:32;;;;;;;19.60;4.38;;;-0.60;99.90;;;;;;6250836;22;20024;-87
2023/03/15 02:38:21;;;;;;;12.27;4.38;;;-0.60;99.90;;;;;;6250193;23;20024;-89
2023/03/15 02:41:13;;;;;;;14.30;4.95;;;-0.50;99.90;;;;;;6261813;23;20103;-90
2023/03/15 02:44:06;;;;;;;15.52;4.60;;;-0.50;99.90;;;;;;6240929;22;20031;-87
2023/03/15 02:47:01;;;;;;;9.55;4.15;;;-0.60;99.90;;;;;;6252547;23;20072;-88
2023/03/15 02:49:51;;;;;;;16.75;4.78;;;-0.60;99.90;;;;;;6248147;23;20099;-90
2023/03/15 02:52:39;;;;;;;12.52;4.85;;;-0.50;99.90;;;;;;6245423;23;20161;-91
2023/03/15 02:55:27;;;;;;;14.65;5.15;;;-0.50;99.90;;;;;;6244733;23;20043;-90
2023/03/15 02:58:22;;;;;;;21.15;4.63;;;-0.50;99.90;;;;;;6225178;23;20060;-90
2023/03/15 03:01:14;;;;;;;13.00;5.22;;;-0.50;99.90;;;;;;6245463;23;20122;-87
2023/03/15 03:04:07;;;;;;;14.15;4.30;;;-0.50;99.90;;;;;;6226165;23;20036;-88
2023/03/15 03:06:54;;;;;;;11.45;4.60;;;-0.50;99.90;;;;;;6226132;23;20024;-89
2023/03/15 03:09:47;;;;;;;12.45;4.50;;;-0.50;99.90;;;;;;6229345;23;20035;-89
2023/03/15 03:12:38;;;;;;;9.80;4.47;;;-0.50;99.90;;;;;;6254733;23;20020;-91
2023/03/15 03:15:28;;;;;;;13.07;4.13;;;-0.50;99.90;;;;;;6252562;23;20602;-89
2023/03/15 03:18:17;;;;;;;11.18;4.45;;;-0.50;99.90;;;;;;6228331;23;20064;-89
2023/03/15 03:21:06;;;;;;;15.48;5.00;;;-0.60;53.30;;;;;;6249586;23;20028;-89
2023/03/15 03:24:00;;;;;;;13.35;4.50;;;-0.60;56.10;;;;;;6250903;22;20047;-89
2023/03/15 03:26:48;;;;;;;12.43;4.90;;;-0.70;89.90;;;;;;6248915;23;20028;-89
2023/03/15 03:29:37;;;;;;;13.10;4.13;;;-0.70;59.10;;;;;;6246993;23;20020;-88
2023/03/15 03:32:29;;;;;;;14.80;4.90;;;-0.80;31.80;;;;;;6249341;23;20020;-88
2023/03/15 03:35:19;;;;;;;;;;;-0.80;99.90;;;;;;6246745;23;20056;-87
2023/03/15 03:38:10;;;;;;;12.50;5.05;;;-0.80;92.00;;;;;;6245771;23;20049;-88
2023/03/15 03:41:01;;;;;;;10.38;5.40;;;-0.90;90.60;;;;;;6226977;23;20032;-88
2023/03/15 03:43:50;;;;;;;14.35;5.28;;;-0.90;77.80;;;;;;6224960;23;20024;-89
2023/03/15 03:46:41;;;;;;;18.10;6.40;;;-1.00;72.20;;;;;;6245293;23;20352;-88
2023/03/15 03:49:32;;;;;;;14.95;4.82;;;-1.00;83.40;;;;;;6245339;23;20056;-88
2023/03/15 03:52:19;;;;;;;11.68;5.10;;;-1.00;99.90;;;;;;6247223;23;20027;-87
2023/03/15 03:55:07;;;;;;;12.98;5.32;;;-1.00;99.90;;;;;;6245286;23;20120;-88
2023/03/15 03:57:56;;;;;;;11.20;4.78;;;-1.10;99.90;;;;;;6227711;23;20028;-88
2023/03/15 04:00:43;;;;;;;18.00;5.43;;;-1.20;99.90;;;;;;6224024;23;20481;-89
2023/03/15 04:03:33;;;;;;;14.02;5.32;;;-1.20;99.90;;;;;;6224589;23;20086;-90
2023/03/15 04:06:22;;;;;;;16.48;6.15;;;-1.30;99.90;;;;;;6225547;23;20020;-89
2023/03/15 04:09:18;;;;;;;15.02;6.57;;;-1.30;99.90;;;;;;6246695;23;20020;-90
2023/03/15 04:12:06;;;;;;;21.95;7.15;;;-1.20;99.90;;;;;;6224054;23;20035;-89
2023/03/15 04:14:53;;;;;;;17.70;6.70;;;-1.20;99.90;;;;;;6225115;23;20391;-89
2023/03/15 04:17:41;;;;;;;20.00;6.85;;;-1.20;99.90;;;;;;6223934;23;20028;-90
2023/03/15 04:20:34;;;;;;;36.08;7.47;;;-1.20;99.90;;;;;;6246517;23;20032;-90
2023/03/15 04:23:22;;;;;;;20.98;6.88;;;-1.20;99.90;;;;;;6225984;23;20027;-90
2023/03/15 04:26:09;;;;;;;22.95;9.18;;;-1.30;99.90;;;;;;6226706;23;20103;-90
2023/03/15 04:28:58;;;;;;;15.77;7.07;;;-1.30;99.90;;;;;;6225697;23;20024;-89
2023/03/15 04:31:45;;;;;;;23.17;8.05;;;-1.40;99.90;;;;;;6225364;23;20078;-90
2023/03/15 04:34:32;;;;;;;26.80;8.73;;;-1.30;99.90;;;;;;6246436;23;20788;-89
2023/03/15 04:37:26;;;;;;;23.25;8.57;;;-1.30;99.90;;;;;;6225130;23;20047;-88
2023/03/15 04:40:18;;;;;;;19.00;8.77;;;-1.20;99.90;;;;;;6226838;23;20024;-90
2023/03/15 04:43:17;;;;;;;21.45;9.20;;;-1.20;99.90;;;;;;6224943;23;20031;-90
2023/03/15 04:46:07;;;;;;;26.80;8.38;;;-1.30;99.90;;;;;;6225152;23;20103;-90
2023/03/15 04:48:59;;;;;;;44.05;9.40;;;-1.30;99.90;;;;;;6225865;23;20350;-91
2023/03/15 04:51:48;;;;;;;24.83;9.32;;;-1.30;99.90;;;;;;6224295;23;20656;-90
2023/03/15 04:54:41;;;;;;;27.77;10.13;;;-1.30;99.90;;;;;;6226276;23;20024;-89
2023/03/15 05:04:50;;;;;;;39.85;10.00;;;-1.40;99.90;;;;;;6258674;23;20008;-89
2023/03/15 05:07:39;;;;;;;21.95;10.32;;;-1.50;99.00;;;;;;6235037;23;20047;-92
2023/03/15 05:10:36;;;;;;;21.33;9.07;;;-1.50;99.90;;;;;;6259116;23;20032;-89
2023/03/15 05:13:31;;;;;;;20.88;9.20;;;-1.40;99.90;;;;;;6238633;22;20024;-89
2023/03/15 05:16:54;;;;;;;17.70;8.88;;;-1.40;95.80;;;;;;6238452;22;20032;-90
2023/03/15 05:19:46;;;;;;;20.80;9.02;;;-1.30;99.50;;;;;;6241880;22;20012;-89
2023/03/15 05:22:43;;;;;;;26.58;9.25;;;-1.30;75.50;;;;;;6268374;23;20051;-89
2023/03/15 05:25:35;;;;;;;19.87;9.50;;;-1.20;77.70;;;;;;6245697;23;20035;-88
2023/03/15 05:28:30;;;;;;;21.05;7.85;;;-1.20;46.70;;;;;;6248281;23;20019;-89
2023/03/15 05:31:23;;;;;;;15.48;8.68;;;-1.20;39.90;;;;;;6236562;23;20131;-90
2023/03/15 05:34:15;;;;;;;27.38;8.32;;;-1.20;28.70;;;;;;6256330;23;20057;-89
2023/03/15 05:37:12;;;;;;;19.00;8.20;;;-1.30;1.00;;;;;;6236581;23;20020;-88
2023/03/15 05:40:12;;;;;;;15.73;8.93;;;-1.40;1.00;;;;;;6236062;23;20024;-88
2023/03/15 05:43:08;;;;;;;28.73;8.57;;;-1.30;28.40;;;;;;6251979;23;20074;-89
2023/03/15 05:46:12;;;;;;;22.90;8.30;;;-1.20;1.00;;;;;;6225694;23;20312;-88
2023/03/15 05:49:19;;;;;;;21.17;9.05;;;-1.20;1.00;;;;;;6262607;22;20039;-90
2023/03/15 05:52:14;;;;;;;17.88;10.02;;;-1.10;1.00;;;;;;6246580;23;20034;-91
2023/03/15 05:55:21;;;;;;;17.38;8.85;;;-1.10;1.00;;;;;;6261246;23;20032;-92
2023/03/15 05:58:26;;;;;;;20.63;8.50;;;-1.10;1.00;;;;;;6257270;23;20282;-92
2023/03/15 06:01:14;;;;;;;18.65;8.27;;;-1.10;99.90;;;;;;6250921;23;20051;-89
2023/03/15 06:04:20;;;;;;;16.20;7.97;;;-1.10;99.90;;;;;;6229962;23;20058;-89
2023/03/15 06:07:13;;;;;;;19.33;8.93;;;-1.10;99.90;;;;;;6230873;23;20024;-91
2023/03/15 06:10:01;;;;;;;20.17;8.98;;;-1.00;99.90;;;;;;6226942;23;20024;-89
2023/03/15 06:12:51;;;;;;;17.88;7.90;;;-1.00;99.90;;;;;;6248512;23;20055;-90
2023/03/15 06:15:39;;;;;;;11.60;7.20;;;-1.00;93.90;;;;;;6227137;23;20020;-89
2023/03/15 06:18:28;;;;;;;23.60;8.63;;;-1.00;26.00;;;;;;6250746;23;20035;-91
2023/03/15 06:21:18;;;;;;;17.63;8.13;;;-1.00;1.00;;;;;;6228547;22;20020;-89
2023/03/15 06:24:12;;;;;;;27.05;8.18;;;-0.90;1.00;;;;;;6254249;23;20024;-91
2023/03/15 06:27:05;;;;;;;22.40;8.88;;;-0.90;1.60;;;;;;6235181;23;20020;-90
2023/03/15 06:29:57;;;;;;;22.10;8.73;;;-0.80;99.90;;;;;;6241132;23;20093;-91
2023/03/15 06:32:46;;;;;;;17.73;7.82;;;-0.70;1.00;;;;;;6238294;23;20028;-93
2023/03/15 06:35:36;;;;;;;19.15;7.50;;;-0.60;1.00;;;;;;6238304;23;20024;-88
2023/03/15 06:38:23;;;;;;;22.92;8.60;;;-0.50;33.40;;;;;;6236552;23;20066;-92
2023/03/15 06:41:11;;;;;;;21.58;7.60;;;-0.40;1.00;;;;;;6257269;22;20035;-90
2023/03/15 06:43:59;;;;;;;16.35;7.60;;;-0.20;23.80;;;;;;6253824;22;20055;-91
2023/03/15 06:46:48;;;;;;;23.48;7.22;;;-0.10;99.90;;;;;;6252015;23;20035;-92
2023/03/15 06:49:36;;;;;;;15.70;6.40;;;0.00;99.90;;;;;;6228903;23;20024;-92
2023/03/15 06:52:25;;;;;;;22.92;7.60;;;0.10;99.90;;;;;;6227278;23;20032;-92
2023/03/15 06:55:18;;;;;;;18.83;6.10;;;0.20;50.80;;;;;;6226421;23;20020;-89
2023/03/15 06:58:12;;;;;;;16.95;5.70;;;0.30;99.90;;;;;;6229771;23;20032;-89
2023/03/15 07:01:00;;;;;;;20.77;6.68;;;0.40;99.90;;;;;;6234069;23;20038;-87
2023/03/15 07:03:47;;;;;;;19.70;6.30;;;0.50;1.00;;;;;;6261318;23;20039;-88
2023/03/15 07:06:35;;;;;;;18.75;6.75;;;0.50;99.90;;;;;;6237310;23;20024;-92
2023/03/15 07:09:22;;;;;;;16.35;5.82;;;0.60;99.90;;;;;;6228260;22;20031;-88
2023/03/15 07:12:10;;;;;;;12.98;5.65;;;0.70;99.90;;;;;;6227593;23;20035;-90
2023/03/15 07:14:58;;;;;;;14.00;5.45;;;0.70;1.00;;;;;;6247685;23;20047;-89
2023/03/15 07:17:46;;;;;;;15.75;5.43;;;0.70;1.00;;;;;;6228377;22;20308;-91
2023/03/15 07:20:34;;;;;;;15.68;5.57;;;0.80;99.90;;;;;;6254628;23;20028;-89
2023/03/15 07:23:23;;;;;;;14.57;6.10;;;0.80;99.90;;;;;;6226833;23;20031;-92
2023/03/15 07:26:14;;;;;;;15.48;6.00;;;0.90;99.90;;;;;;6233625;23;20036;-90
2023/03/15 07:29:02;;;;;;;10.52;5.43;;;0.90;99.90;;;;;;6250019;23;20051;-91
2023/03/15 07:31:50;;;;;;;15.65;6.25;;;1.00;99.90;;;;;;6249668;23;20035;-91
2023/03/15 07:34:43;;;;;;;17.30;6.07;;;1.10;99.90;;;;;;6251210;23;20046;-93
2023/03/15 07:37:31;;;;;;;17.90;6.07;;;1.00;90.50;;;;;;6232609;23;20028;-91
2023/03/15 07:40:20;;;;;;;15.52;6.25;;;1.00;51.70;;;;;;6228304;23;20062;-89
2023/03/15 07:43:08;;;;;;;11.27;5.18;;;1.20;79.50;;;;;;6248820;23;20028;-92
2023/03/15 07:46:04;;;;;;;9.68;4.63;;;1.20;1.00;;;;;;6254275;23;20028;-88
2023/03/15 07:48:58;;;;;;;11.00;5.13;;;1.50;1.00;;;;;;6255343;23;20020;-91
2023/03/15 07:51:51;;;;;;;10.90;4.53;;;1.60;1.00;;;;;;6232320;23;20024;-88
2023/03/15 07:54:40;;;;;;;11.63;4.47;;;1.90;99.90;;;;;;6232537;23;20028;-89
2023/03/15 07:57:51;;;;;;;10.32;3.92;;;2.20;99.90;;;;;;6253386;23;20032;-89
2023/03/15 08:00:46;;;;;;;20.42;4.88;;;2.10;99.90;;;;;;6250128;23;20079;-88
2023/03/15 08:03:45;;;;;;;11.13;4.22;;;2.40;99.90;;;;;;6254304;22;20035;-89
2023/03/15 08:07:00;;;;;;;11.07;3.67;;;2.70;82.30;;;;;;6220045;23;20336;-90
2023/03/15 08:10:04;;;;;;;8.15;4.35;;;2.70;1.00;;;;;;6201873;23;20328;-89
2023/03/15 08:13:19;;;;;;;14.30;4.80;;;2.70;1.00;;;;;;6219942;23;20020;-91
2023/03/15 08:16:19;;;;;;;8.70;4.13;;;2.80;1.00;;;;;;6199328;23;20024;-90
2023/03/15 08:19:16;;;;;;;11.75;3.78;;;2.80;99.90;;;;;;6221971;23;20020;-91
2023/03/15 08:22:23;;;;;;;;;;;;;;;;;;;;;
2023/03/15 08:25:50;;;;;;;10.73;3.53;;;3.70;99.90;;;;;;6211543;23;20080;-91
2023/03/15 08:28:54;;;;;;;7.93;3.13;;;4.00;99.90;;;;;;6197346;23;20028;-89
2023/03/15 08:31:57;;;;;;;9.27;3.65;;;3.90;99.90;;;;;;6249129;23;20051;-93
2023/03/15 08:35:21;;;;;;;;;;;;;;;;;;;;;
2023/03/15 08:38:48;;;;;;;6.38;2.88;;;4.80;99.90;;;;;;6267443;22;20047;-88
2023/03/15 08:42:09;;;;;;;6.93;3.13;;;4.50;1.00;;;;;;6250374;22;20022;-88
2023/03/15 08:45:42;;;;;;;8.85;2.65;;;4.40;1.00;;;;;;6268986;22;20018;-86
2023/03/15 08:49:08;;;;;;;7.35;3.42;;;5.10;1.00;;;;;;6259172;23;20024;-90
2023/03/15 08:51:56;;;;;;;13.52;4.03;;;5.00;1.00;;;;;;6263219;23;20027;-92
2023/03/15 08:54:49;;;;;;;10.48;3.33;;;4.90;1.00;;;;;;6230278;23;20039;-90
2023/03/15 08:57:41;;;;;;;7.07;3.22;;;5.40;1.00;;;;;;6230329;22;20035;-91
2023/03/15 09:00:56;;;;;;;7.55;2.83;;;5.40;1.00;;;;;;6229470;23;20028;-93
2023/03/15 09:04:00;;;;;;;10.52;3.42;;;5.70;99.90;;;;;;6244591;23;20315;-90
2023/03/15 09:06:49;;;;;;;;;;;4.90;99.90;;;;;;6246243;23;20048;-91
2023/03/15 09:09:41;;;;;;;7.28;2.97;;;4.50;99.90;;;;;;6243866;23;19955;-89
2023/03/15 09:12:38;;;;;;;4.78;3.17;;;4.70;99.90;;;;;;6246510;23;20031;-89
2023/03/15 09:15:35;;;;;;;10.63;3.08;;;5.20;99.90;;;;;;6226362;23;20362;-90
2023/03/15 09:18:23;;;;;;;6.18;2.72;;;5.20;99.90;;;;;;6246870;23;20056;-90
2023/03/15 09:21:15;;;;;;;13.63;3.50;;;5.40;99.90;;;;;;6224047;23;20107;-88
2023/03/15 09:24:09;;;;;;;8.43;3.00;;;5.00;99.90;;;;;;6244077;23;20028;-87
2023/03/15 09:26:57;;;;;;;7.43;2.95;;;4.60;99.90;;;;;;6225289;23;20138;-93
2023/03/15 09:30:09;;;;;;;8.85;2.92;;;4.60;99.90;;;;;;6245638;23;20438;-88
2023/03/15 09:33:04;;;;;;;9.90;3.05;;;4.30;99.90;;;;;;6224956;23;20101;-92
2023/03/15 09:36:09;;;;;;;7.97;3.33;;;4.40;99.90;;;;;;6227515;22;20032;-89
2023/03/15 09:39:10;;;;;;;6.03;2.55;;;4.40;99.90;;;;;;6228449;23;20621;-89
2023/03/15 09:42:11;;;;;;;10.68;2.50;;;4.80;99.90;;;;;;6246423;23;20039;-92
2023/03/15 09:45:26;;;;;;;5.00;2.22;;;4.70;99.90;;;;;;6248759;23;20024;-91
2023/03/15 09:48:34;;;;;;;5.05;2.30;;;4.30;99.90;;;;;;6249088;23;20020;-92
2023/03/15 09:51:57;;;;;;;6.60;2.60;;;4.10;99.90;;;;;;6249797;23;20031;-93
2023/03/15 09:55:34;;;;;;;;;;;;;;;;;;;;;
2023/03/15 09:58:47;;;;;;;10.77;2.35;;;4.00;99.90;;;;;;6250504;23;20091;-92
2023/03/15 10:01:50;;;;;;;7.95;2.72;;;4.10;99.90;;;;;;6245170;23;20038;-90
2023/03/15 10:04:48;;;;;;;5.75;2.45;;;3.90;99.90;;;;;;6250464;22;20028;-93
2023/03/15 10:07:46;;;;;;;5.55;2.70;;;3.80;99.90;;;;;;6230804;22;20095;-89
2023/03/15 10:10:41;;;;;;;6.78;2.10;;;4.20;99.90;;;;;;6248661;23;20173;-90
2023/03/15 10:14:15;;;;;;;5.65;1.92;;;4.70;99.90;;;;;;6227745;23;20024;-90
2023/03/15 10:17:45;;;;;;;6.57;1.67;;;5.20;99.90;;;;;;6246695;23;20028;-93
2023/03/15 10:21:05;;;;;;;;;;;;;;;;;;;;;
2023/03/15 10:24:32;;;;;;;15.82;4.00;;;5.50;99.90;;;;;;6249526;23;20036;-90
2023/03/15 10:28:09;;;;;;;7.50;2.05;;;5.60;99.90;;;;;;6186364;23;20025;-92
2023/03/15 10:31:59;;;;;;;4.40;2.38;;;5.70;99.90;;;;;;6076475;23;20101;-93
2023/03/15 10:35:37;;;;;;;;;;;;;;;;;;;;;
2023/03/15 10:39:12;;;;;;;8.80;2.35;;;7.20;99.90;;;;;;6074148;23;20045;-92
2023/03/15 10:42:51;;;;;;;;;;;;;;;;;;;;;
2023/03/15 10:46:20;;;;;;;5.28;1.85;;;8.80;99.90;;;;;;6014681;23;20118;-87
2023/03/15 10:49:20;;;;;;;7.20;1.50;;;8.40;99.90;;;;;;6130479;23;20122;-86
2023/03/15 10:52:34;;;;;;;5.05;1.60;;;9.00;99.90;;;;;;6165795;23;20690;-88
2023/03/15 10:55:44;;;;;;;3.80;1.80;;;9.30;99.90;;;;;;6190987;23;20033;-90
2023/03/15 10:58:56;;;;;;;5.75;1.80;;;9.50;99.90;;;;;;6191098;23;20044;-88
2023/03/15 11:07:22;;;;;;;;;;;;;;;;;;;;;
2023/03/15 11:10:24;;;;;;;4.93;1.60;;;9.70;99.90;;;;;;6128921;23;20026;-89
2023/03/15 11:13:32;;;;;;;3.03;1.27;;;9.80;99.90;;;;;;6134710;23;20018;-88
2023/03/15 11:16:28;;;;;;;4.97;1.40;;;10.60;99.90;;;;;;6125779;23;20408;-87
2023/03/15 11:19:24;;;;;;;2.72;1.20;;;10.90;99.90;;;;;;6128018;23;20025;-90
2023/03/15 11:22:13;;;;;;;7.03;1.45;;;10.70;95.70;;;;;;6164686;23;20412;-89
2023/03/15 11:25:03;;;;;;;6.32;2.22;;;10.20;94.80;;;;;;6217545;23;20028;-90
2023/03/15 11:27:53;;;;;;;3.33;1.30;;;10.30;93.50;;;;;;6217637;23;20361;-90
2023/03/15 11:30:42;;;;;;;7.32;1.80;;;10.10;83.00;;;;;;6196499;23;20431;-88
2023/03/15 11:33:41;;;;;;;7.38;1.38;;;9.40;82.90;;;;;;6219149;23;20292;-89
2023/03/15 11:36:37;;;;;;;3.17;1.20;;;9.00;84.50;;;;;;6198663;22;20104;-89
2023/03/15 11:40:01;;;;;;;4.43;1.35;;;9.00;79.00;;;;;;6195637;23;20039;-91
2023/03/15 11:43:04;;;;;;;3.47;1.30;;;8.40;68.60;;;;;;6207220;23;20025;-91
2023/03/15 11:46:14;;;;;;;5.68;1.52;;;8.50;66.30;;;;;;6225438;23;20027;-92
2023/03/15 11:49:22;;;;;;;2.10;1.20;;;8.20;64.20;;;;;;6227763;23;20036;-92
2023/03/15 11:52:38;;;;;;;;;;;7.90;59.40;;;;;;6249868;23;20020;-89
2023/03/15 11:55:36;;;;;;;5.78;1.17;;;7.70;61.30;;;;;;6227650;23;19915;-88
2023/03/15 11:58:43;;;;;;;2.40;1.30;;;7.00;55.20;;;;;;6251353;23;20482;-92
2023/03/15 12:02:12;;;;;;;6.35;1.35;;;6.60;61.90;;;;;;6247710;23;20277;-89
2023/03/15 12:05:05;;;;;;;4.45;1.40;;;6.80;60.40;;;;;;6227762;23;20024;-90
2023/03/15 12:08:49;;;;;;;3.38;1.67;;;7.60;73.10;;;;;;6229805;22;20046;-89
2023/03/15 12:11:39;;;;;;;4.70;1.75;;;8.80;68.30;;;;;;6217862;23;20304;-90
2023/03/15 12:14:34;;;;;;;4.22;1.20;;;9.00;59.10;;;;;;6226432;23;20024;-92
2023/03/15 12:17:25;;;;;;;1.50;1.00;;;8.70;51.50;;;;;;6253431;23;20028;-92
2023/03/15 12:24:24;;;;;;;2.75;1.13;;;9.60;47.60;;;;;;6248318;23;20012;-89
2023/03/15 12:27:20;;;;;;;2.28;1.13;;;10.40;47.60;;;;;;6230996;22;20024;-90
2023/03/15 12:30:41;;;;;;;4.10;1.48;;;10.20;35.10;;;;;;6247316;23;20020;-91
2023/03/15 12:33:48;;;;;;;3.60;1.08;;;9.80;37.70;;;;;;6232208;23;20149;-89
2023/03/15 12:36:56;;;;;;;1.25;1.00;;;9.50;37.90;;;;;;6230148;23;20024;-91
2023/03/15 12:39:50;;;;;;;3.83;1.23;;;8.60;33.70;;;;;;6250506;23;20035;-89
2023/03/15 12:42:37;;;;;;;2.80;1.10;;;8.50;36.50;;;;;;6225510;23;20029;-90
2023/03/15 12:45:47;;;;;;;2.20;1.10;;;8.60;37.10;;;;;;6247525;23;20123;-89
2023/03/15 12:49:16;;;;;;;4.40;1.75;;;10.30;44.40;;;;;;6230258;23;20075;-90
2023/03/15 13:00:56;;;;;;;2.63;0.98;;;11.80;23.10;;;;;;6021022;23;20347;-89
2023/03/15 13:03:44;;;;;;;5.38;1.80;;;11.50;14.70;;;;;;6111354;23;20422;-91
2023/03/15 13:07:01;;;;;;;1.35;1.00;;;10.20;13.10;;;;;;6108217;23;20033;-90
2023/03/15 13:10:25;;;;;;;4.88;1.13;;;9.00;11.10;;;;;;6128584;23;20030;-91
2023/03/15 13:13:16;;;;;;;3.53;1.27;;;8.50;11.60;;;;;;6139622;23;20062;-90
2023/03/15 13:16:37;;;;;;;3.38;1.60;;;8.40;12.00;;;;;;6138219;23;20105;-89
2023/03/15 13:20:20;;;;;;;4.85;1.35;;;8.10;12.20;;;;;;6126166;23;20014;-92
2023/03/15 13:23:27;;;;;;;3.90;1.10;;;8.30;14.70;;;;;;6125756;23;20339;-92
2023/03/15 13:26:44;;;;;;;3.25;1.52;;;9.20;17.30;;;;;;6154325;23;20024;-91
2023/03/15 13:29:36;;;;;;;6.85;1.88;;;9.40;15.80;;;;;;6228263;23;20086;-91
2023/03/15 13:32:25;;;;;;;3.33;1.50;;;9.00;11.80;;;;;;6229360;23;20099;-88
2023/03/15 13:35:13;;;;;;;7.22;1.52;;;8.40;9.70;;;;;;6247051;23;20024;-90
2023/03/15 13:38:31;;;;;;;5.78;1.75;;;7.40;9.10;;;;;;6228202;23;20042;-91
2023/03/15 13:41:21;;;;;;;3.10;1.52;;;7.10;14.70;;;;;;6231882;23;20028;-92
2023/03/15 13:44:25;;;;;;;4.57;1.60;;;7.10;29.40;;;;;;6257083;22;20032;-91
2023/03/15 13:47:22;;;;;;;3.22;1.65;;;7.00;17.60;;;;;;6233179;23;20059;-92
2023/03/15 13:50:18;;;;;;;4.82;1.58;;;7.10;21.30;;;;;;6230635;22;20031;-90
2023/03/15 13:53:06;;;;;;;3.67;1.90;;;7.30;25.10;;;;;;6228876;23;20024;-89
2023/03/15 13:55:56;;;;;;;5.05;1.58;;;7.30;26.50;;;;;;6227966;23;20566;-90
2023/03/15 13:58:47;;;;;;;6.45;1.90;;;7.40;28.80;;;;;;6248384;23;20034;-92
2023/03/15 14:01:38;;;;;;;2.38;1.60;;;7.50;37.90;;;;;;6229536;23;20034;-89
2023/03/15 14:04:34;;;;;;;3.83;1.90;;;7.40;73.90;;;;;;6228170;23;20115;-89
2023/03/15 14:07:40;;;;;;;4.22;1.77;;;7.40;87.90;;;;;;6248247;23;20028;-88
2023/03/15 14:10:31;;;;;;;6.15;1.77;;;8.00;99.50;;;;;;6228405;23;20158;-91
2023/03/15 14:13:45;;;;;;;5.57;1.98;;;8.00;99.90;;;;;;6228826;23;20304;-88
2023/03/15 14:16:42;;;;;;;2.55;1.65;;;8.40;99.90;;;;;;6253052;22;20020;-88
2023/03/15 14:19:53;;;;;;;8.32;2.30;;;8.10;99.90;;;;;;6236438;23;20028;-88
2023/03/15 14:22:46;;;;;;;;;;;8.20;99.90;;;;;;6253375;23;20074;-91
2023/03/15 14:25:42;;;;;;;4.65;2.17;;;8.10;99.90;;;;;;6227081;23;19966;-90
2023/03/15 14:28:37;;;;;;;4.03;2.00;;;8.90;99.90;;;;;;6228375;23;20299;-90
2023/03/15 14:31:31;;;;;;;4.35;2.08;;;9.90;99.90;;;;;;6249178;23;20035;-89
2023/03/15 14:34:35;;;;;;;5.07;1.80;;;10.20;99.90;;;;;;6230002;22;20074;-89
2023/03/15 14:37:35;;;;;;;3.00;1.60;;;9.80;99.90;;;;;;6225781;23;20039;-89
2023/03/15 14:40:35;;;;;;;4.43;1.80;;;9.40;93.70;;;;;;6245824;23;20024;-89
2023/03/15 14:43:22;;;;;;;6.25;2.08;;;9.00;89.00;;;;;;6225841;23;20031;-88
2023/03/15 14:46:11;;;;;;;5.70;2.30;;;8.50;89.00;;;;;;6247549;23;20583;-89
2023/03/15 14:48:58;;;;;;;4.10;2.05;;;8.20;92.40;;;;;;6224832;23;20020;-88
2023/03/15 14:51:51;;;;;;;4.55;2.10;;;7.80;92.80;;;;;;6226814;23;20331;-86
2023/03/15 14:54:45;;;;;;;7.32;2.42;;;7.40;94.80;;;;;;6248894;22;20024;-88
2023/03/15 14:57:37;;;;;;;4.13;1.83;;;7.30;97.10;;;;;;6248885;23;20099;-86
2023/03/15 15:00:28;;;;;;;3.55;1.80;;;6.80;99.90;;;;;;6246036;23;20024;-88
2023/03/15 15:03:37;;;;;;;3.75;2.22;;;6.60;99.90;;;;;;6225864;23;20048;-86
2023/03/15 15:06:35;;;;;;;11.27;2.15;;;6.40;99.90;;;;;;6247442;23;20391;-86
2023/03/15 15:09:26;;;;;;;5.03;1.95;;;6.10;99.90;;;;;;6246812;23;20035;-88
2023/03/15 15:12:13;;;;;;;4.35;2.25;;;5.80;99.90;;;;;;6251583;23;20020;-87
2023/03/15 15:15:21;;;;;;;6.18;2.30;;;5.60;99.90;;;;;;6226577;23;20024;-86
2023/03/15 15:18:13;;;;;;;5.75;2.60;;;5.40;99.90;;;;;;6223434;23;20032;-88
2023/03/15 15:21:30;;;;;;;5.60;2.38;;;5.00;99.90;;;;;;6246583;23;20024;-89
2023/03/15 15:24:23;;;;;;;6.15;2.70;;;4.70;99.90;;;;;;6247511;23;20028;-89
2023/03/15 15:27:15;;;;;;;4.78;2.60;;;4.30;1.00;;;;;;6247306;23;20028;-88
2023/03/15 15:30:04;;;;;;;7.28;3.00;;;4.20;59.90;;;;;;6226062;23;20117;-90
2023/03/15 15:32:53;;;;;;;6.70;2.53;;;4.30;99.90;;;;;;6246316;23;20075;-87
2023/03/15 15:35:41;;;;;;;3.88;2.70;;;4.80;99.90;;;;;;6247338;23;20099;-90
2023/03/15 15:38:37;;;;;;;4.70;2.83;;;4.90;99.90;;;;;;6224401;23;20032;-89
2023/03/15 15:41:30;;;;;;;3.50;2.70;;;4.90;99.90;;;;;;6224567;23;20074;-88
2023/03/15 15:44:24;;;;;;;3.40;2.50;;;4.90;99.90;;;;;;6225294;23;20138;-90
2023/03/15 15:47:13;;;;;;;4.93;2.50;;;4.80;99.90;;;;;;6224634;23;20038;-86
2023/03/15 15:50:11;;;;;;;5.70;2.40;;;4.70;99.90;;;;;;6244275;23;20039;-89
2023/03/15 15:53:01;;;;;;;2.75;2.22;;;4.60;99.90;;;;;;6246210;22;20028;-87
2023/03/15 15:55:49;;;;;;;3.17;2.30;;;4.60;99.90;;;;;;6224832;23;20117;-90
2023/03/15 15:58:36;;;;;;;5.13;3.10;;;4.50;99.90;;;;;;6227065;23;20374;-88
2023/03/15 16:01:24;;;;;;;5.60;2.30;;;4.50;99.90;;;;;;6249009;22;20075;-90
2023/03/15 16:04:11;;;;;;;7.13;2.45;;;4.50;1.00;;;;;;6225246;23;20028;-87